createdAt,value
2023-01-17T00:04:10.618Z,98298.44
2023-01-17T00:09:35.189Z,98290.69
2023-01-17T00:14:41.651Z,98291.50
2023-01-17T00:20:12.929Z,98274.53
2023-01-17T00:25:39.316Z,98266.75
2023-01-17T00:30:45.922Z,98260.13
2023-01-17T00:35:53.623Z,98249.91
2023-01-17T00:41:04.377Z,98243.00
2023-01-17T00:46:28.405Z,98244.81
2023-01-17T00:51:54.344Z,98245.75
2023-01-17T00:57:18.690Z,98231.94
2023-01-17T01:02:43.822Z,98237.91
2023-01-17T01:08:09.332Z,98224.13
2023-01-17T01:13:33.152Z,98217.28
2023-01-17T01:18:56.658Z,98206.16
2023-01-17T01:24:21.451Z,98203.47
2023-01-17T01:29:45.215Z,98202.50
2023-01-17T01:34:52.483Z,98200.72
2023-01-17T01:40:00.881Z,98181.75
2023-01-17T01:45:20.812Z,98163.00
2023-01-17T01:50:28.755Z,98163.00
2023-01-17T01:55:41.515Z,98151.81
2023-01-17T02:00:47.969Z,98138.22
2023-01-17T02:05:55.006Z,98126.78
2023-01-17T02:11:03.770Z,98136.06
2023-01-17T02:16:24.358Z,98131.66
2023-01-17T02:21:34.082Z,98125.59
2023-01-17T02:27:06.039Z,98113.44
2023-01-17T02:32:22.675Z,98098.97
2023-01-17T02:37:38.570Z,98101.59
2023-01-17T02:42:51.766Z,98103.94
2023-01-17T02:47:59.738Z,98112.53
2023-01-17T02:53:27.804Z,98107.31
2023-01-17T02:58:54.170Z,98097.78
2023-01-17T03:04:08.149Z,98089.09
2023-01-17T03:09:17.085Z,98083.91
2023-01-17T03:14:23.645Z,98077.03
2023-01-17T03:19:31.851Z,98063.28
2023-01-17T03:24:38.302Z,98067.53
2023-01-17T03:29:44.538Z,98065.84
2023-01-17T03:34:52.280Z,98071.75
2023-01-17T03:39:58.793Z,98058.88
2023-01-17T03:45:07.952Z,98056.25
2023-01-17T03:50:18.992Z,98055.34
2023-01-17T03:55:27.317Z,98056.31
2023-01-17T04:00:37.454Z,98054.56
2023-01-17T04:05:45.325Z,98057.94
2023-01-17T04:10:51.569Z,98062.25
2023-01-17T04:15:58.724Z,98050.31
2023-01-17T04:21:08.026Z,98052.09
2023-01-17T04:26:15.215Z,98056.53
2023-01-17T04:31:21.696Z,98060.81
2023-01-17T04:36:29.537Z,98069.38
2023-01-17T04:41:36.321Z,98062.47
2023-01-17T04:46:42.875Z,98063.44
2023-01-17T04:51:50.641Z,98059.25
2023-01-17T04:56:56.986Z,98067.84
2023-01-17T05:02:03.487Z,98068.81
2023-01-17T05:07:11.579Z,98071.53
2023-01-17T05:12:21.447Z,98081.03
2023-01-17T05:17:28.390Z,98080.41
2023-01-17T05:22:36.176Z,98079.84
2023-01-17T05:27:42.423Z,98086.13
2023-01-17T05:32:51.711Z,98079.41
2023-01-17T05:37:59.828Z,98085.59
2023-01-17T05:43:06.376Z,98085.94
2023-01-17T05:48:12.858Z,98093.06
2023-01-17T05:53:21.545Z,98088.84
2023-01-17T05:58:28.057Z,98078.72
2023-01-17T06:03:34.718Z,98080.53
2023-01-17T06:08:42.701Z,98081.66
2023-01-17T06:13:51.007Z,98089.63
2023-01-17T06:18:57.572Z,98111.19
2023-01-17T06:24:06.513Z,98118.31
2023-01-17T06:29:13.549Z,98137.25
2023-01-17T06:34:20.193Z,98140.84
2023-01-17T06:39:28.512Z,98139.34
2023-01-17T06:44:35.409Z,98143.59
2023-01-17T06:49:44.557Z,98145.34
2023-01-17T06:54:52.165Z,98143.78
2023-01-17T06:59:58.416Z,98153.41
2023-01-17T07:05:04.882Z,98151.88
2023-01-17T07:10:15.224Z,98158.56
2023-01-17T07:15:21.566Z,98157.78
2023-01-17T07:20:28.113Z,98154.47
2023-01-17T07:25:37.154Z,98170.69
2023-01-17T07:30:43.552Z,98169.06
2023-01-17T07:35:49.986Z,98155.38
2023-01-17T07:41:01.229Z,98148.41
2023-01-17T07:46:08.886Z,98147.41
2023-01-17T07:51:15.188Z,98149.06
2023-01-17T07:56:23.524Z,98155.81
2023-01-17T08:01:30.220Z,98147.94
2023-01-17T08:06:36.900Z,98160.59
2023-01-17T08:11:44.766Z,98187.00
2023-01-17T08:16:51.230Z,98194.53
2023-01-17T08:21:57.852Z,98206.47
2023-01-17T08:27:05.885Z,98204.69
2023-01-17T08:32:12.226Z,98201.13
2023-01-17T08:37:18.612Z,98200.13
2023-01-17T08:42:26.750Z,98199.94
2023-01-17T08:47:33.683Z,98196.34
2023-01-17T08:52:40.244Z,98189.22
2023-01-17T08:57:48.364Z,98186.56
2023-01-17T09:02:54.957Z,98190.59
2023-01-17T09:08:01.292Z,98181.88
2023-01-17T09:13:09.762Z,98171.38
2023-01-17T09:18:16.078Z,98175.50
2023-01-17T09:23:22.752Z,98190.72
2023-01-17T09:28:30.684Z,98182.06
2023-01-17T09:33:37.262Z,98190.53
2023-01-17T09:38:43.851Z,98193.00
2023-01-17T09:43:56.135Z,98180.00
2023-01-17T09:49:09.460Z,98195.31
2023-01-17T09:54:24.334Z,98190.03
2023-01-17T09:59:45.628Z,98198.47
2023-01-17T10:05:20.501Z,98195.84
2023-01-17T10:10:39.406Z,98202.56
2023-01-17T10:16:04.781Z,98208.44
2023-01-17T10:21:21.370Z,98215.25
2023-01-17T10:26:29.009Z,98210.72
2023-01-17T10:31:45.184Z,98210.59
2023-01-17T10:37:00.825Z,98215.63
2023-01-17T10:42:18.770Z,98215.41
2023-01-17T10:47:30.879Z,98209.31
2023-01-17T10:52:47.475Z,98209.22
2023-01-17T10:57:54.869Z,98203.94
2023-01-17T11:03:03.979Z,98209.03
2023-01-17T11:08:11.250Z,98214.19
2023-01-17T11:13:30.184Z,98214.84
2023-01-17T11:18:40.798Z,98220.72
2023-01-17T11:23:49.506Z,98216.31
2023-01-17T11:29:14.524Z,98220.41
2023-01-17T11:34:27.517Z,98223.66
2023-01-17T11:39:33.850Z,98226.13
2023-01-17T11:44:40.678Z,98221.75
2023-01-17T11:49:50.945Z,98228.41
2023-01-17T11:54:58.063Z,98235.19
2023-01-17T12:00:17.332Z,98225.56
2023-01-17T12:05:54.159Z,98226.31
2023-01-17T12:11:11.648Z,98227.06
2023-01-17T12:16:31.814Z,98230.56
2023-01-17T12:21:53.187Z,98230.47
2023-01-17T12:27:10.102Z,98236.38
2023-01-17T12:32:43.532Z,98231.88
2023-01-17T12:38:04.924Z,98235.13
2023-01-17T12:43:21.941Z,98239.25
2023-01-17T12:48:35.618Z,98238.28
2023-01-17T12:53:52.510Z,98246.97
2023-01-17T12:59:13.842Z,98252.31
2023-01-17T13:04:29.039Z,98250.84
2023-01-17T13:09:46.324Z,98252.66
2023-01-17T13:14:52.724Z,98251.22
2023-01-17T13:20:05.027Z,98262.38
2023-01-17T13:25:32.335Z,98248.66
2023-01-17T13:31:03.232Z,98241.91
2023-01-17T13:36:35.684Z,98250.50
2023-01-17T13:42:05.039Z,98243.66
2023-01-17T13:47:50.486Z,98260.94
2023-01-17T13:52:58.361Z,98256.81
2023-01-17T13:58:06.249Z,98263.84
2023-01-17T14:03:13.594Z,98265.81
2023-01-17T14:08:22.650Z,98278.09
2023-01-17T14:13:35.835Z,98279.22
2023-01-17T14:18:44.544Z,98277.69
2023-01-17T14:24:07.845Z,98276.97
2023-01-17T14:29:59.249Z,98284.97
2023-01-17T14:35:09.546Z,98299.88
2023-01-17T14:40:22.792Z,98320.78
2023-01-17T14:45:33.535Z,98329.66
2023-01-17T14:50:41.707Z,98356.50
2023-01-17T14:56:01.052Z,98355.97
2023-01-17T15:01:14.169Z,98363.28
2023-01-17T15:06:24.139Z,98375.66
2023-01-17T15:11:35.834Z,98366.00
2023-01-17T15:16:43.956Z,98372.19
2023-01-17T15:21:53.325Z,98378.22
2023-01-17T15:27:00.859Z,98377.72
2023-01-17T15:32:17.282Z,98391.69
2023-01-17T15:37:30.927Z,98413.31
2023-01-17T15:42:40.972Z,98422.00
2023-01-17T15:47:49.668Z,98432.41
2023-01-17T15:52:58.862Z,98456.63
2023-01-17T15:58:07.334Z,98477.38
2023-01-17T16:03:26.180Z,98480.03
2023-01-17T16:08:40.314Z,98487.09
2023-01-17T16:13:47.824Z,98492.25
2023-01-17T16:19:02.549Z,98493.94
2023-01-17T16:24:13.699Z,98512.66
2023-01-17T16:29:20.687Z,98514.31
2023-01-17T16:34:34.000Z,98501.38
2023-01-17T16:39:41.816Z,98504.72
2023-01-17T16:44:48.550Z,98517.53
2023-01-17T16:49:56.577Z,98505.53
2023-01-17T16:55:03.342Z,98512.38
2023-01-17T17:00:13.991Z,98500.47
2023-01-17T17:05:22.452Z,98485.88
2023-01-17T17:10:30.860Z,98495.25
2023-01-17T17:15:42.795Z,98483.34
2023-01-17T17:20:51.640Z,98480.03
2023-01-17T17:25:58.672Z,98484.56
2023-01-17T17:31:10.743Z,98484.75
2023-01-17T17:36:20.257Z,98478.84
2023-01-17T17:41:30.015Z,98484.00
2023-01-17T17:46:39.139Z,98493.66
2023-01-17T17:51:48.777Z,98490.38
2023-01-17T17:56:59.994Z,98483.56
2023-01-17T18:02:11.131Z,98492.31
2023-01-17T18:07:21.209Z,98489.88
2023-01-17T18:12:31.455Z,98490.00
2023-01-17T18:17:41.873Z,98499.31
2023-01-17T18:22:54.250Z,98487.53
2023-01-17T18:28:04.581Z,98497.06
2023-01-17T18:33:13.683Z,98500.50
2023-01-17T18:38:29.475Z,98514.22
2023-01-17T18:43:40.267Z,98519.59
2023-01-17T18:48:48.861Z,98513.94
2023-01-17T18:54:00.128Z,98508.84
2023-01-17T18:59:10.431Z,98514.94
2023-01-17T19:04:19.953Z,98523.41
2023-01-17T19:09:32.858Z,98526.13
2023-01-17T19:14:42.643Z,98539.28
2023-01-17T19:19:56.987Z,98556.41
2023-01-17T19:25:23.750Z,98566.66
2023-01-17T19:30:33.526Z,98578.53
2023-01-17T19:35:42.457Z,98582.72
2023-01-17T19:40:53.465Z,98591.19
2023-01-17T19:46:05.047Z,98615.28
2023-01-17T19:51:16.582Z,98625.66
2023-01-17T19:56:29.957Z,98636.69
2023-01-17T20:01:40.130Z,98641.13
2023-01-17T20:06:49.755Z,98653.25
2023-01-17T20:11:59.539Z,98650.81
2023-01-17T20:17:08.816Z,98655.94
2023-01-17T20:22:17.346Z,98658.66
2023-01-17T20:27:32.718Z,98656.94
2023-01-17T20:32:41.689Z,98655.34
2023-01-17T20:37:49.963Z,98656.94
2023-01-17T20:43:10.322Z,98656.19
2023-01-17T20:48:18.696Z,98658.16
2023-01-17T20:53:25.778Z,98655.88
2023-01-17T20:58:34.942Z,98666.09
2023-01-17T21:03:42.905Z,98670.50
2023-01-17T21:08:51.881Z,98672.31
2023-01-17T21:14:01.149Z,98674.06
2023-01-17T21:19:12.253Z,98675.50
2023-01-17T21:24:20.448Z,98680.44
2023-01-17T21:29:29.518Z,98682.13
2023-01-17T21:34:36.434Z,98674.63
2023-01-17T21:39:43.856Z,98676.28
2023-01-17T21:44:53.483Z,98668.63
2023-01-17T21:49:59.819Z,98665.97
2023-01-17T21:55:24.457Z,98670.97
2023-01-17T22:00:32.584Z,98666.63
2023-01-17T22:05:39.324Z,98671.16
2023-01-17T22:10:48.792Z,98679.09
2023-01-17T22:16:02.990Z,98686.19
2023-01-17T22:21:13.504Z,98674.00
2023-01-17T22:26:21.139Z,98675.84
2023-01-17T22:31:30.105Z,98685.19
2023-01-17T22:36:36.702Z,98678.66
2023-01-17T22:41:43.206Z,98682.09
2023-01-17T22:46:51.271Z,98691.34
2023-01-17T22:51:57.946Z,98698.97
2023-01-17T22:57:04.495Z,98690.31
2023-01-17T23:02:12.330Z,98696.63
2023-01-17T23:07:18.782Z,98688.88
2023-01-17T23:12:24.993Z,98668.31
2023-01-17T23:17:50.396Z,98677.84
2023-01-17T23:22:57.038Z,98677.72
2023-01-17T23:28:21.018Z,98675.16
2023-01-17T23:33:28.803Z,98670.00
2023-01-17T23:38:40.971Z,98680.19
2023-01-17T23:43:51.768Z,98679.25
2023-01-17T23:48:59.732Z,98685.28
2023-01-17T23:54:06.755Z,98686.97
2023-01-17T23:59:13.468Z,98686.16
